createdAt,value
2023-02-09T00:02:55.942Z,4.30
2023-02-09T00:07:58.079Z,4.61
2023-02-09T00:13:18.746Z,4.36
2023-02-09T00:18:22.061Z,4.35
2023-02-09T00:23:25.111Z,4.25
2023-02-09T00:28:27.824Z,4.42
2023-02-09T00:33:30.059Z,4.65
2023-02-09T00:38:32.366Z,4.68
2023-02-09T00:43:35.217Z,4.48
2023-02-09T00:48:37.480Z,4.36
2023-02-09T00:53:39.637Z,4.42
2023-02-09T00:58:41.793Z,4.10
2023-02-09T01:03:43.988Z,4.20
2023-02-09T01:08:46.189Z,4.41
2023-02-09T01:13:48.303Z,4.33
2023-02-09T01:18:50.572Z,4.19
2023-02-09T01:23:52.809Z,4.09
2023-02-09T01:28:55.347Z,4.06
2023-02-09T01:33:59.899Z,4.38
2023-02-09T01:39:04.111Z,4.24
2023-02-09T01:44:11.946Z,4.41
2023-02-09T01:49:17.821Z,4.50
2023-02-09T01:54:25.110Z,4.17
2023-02-09T01:59:27.944Z,4.51
2023-02-09T02:04:31.128Z,4.61
2023-02-09T02:09:33.319Z,4.80
2023-02-09T02:14:39.822Z,4.99
2023-02-09T02:20:09.255Z,5.27
2023-02-09T02:25:23.220Z,5.30
2023-02-09T02:30:25.366Z,5.09
2023-02-09T02:36:04.574Z,5.26
2023-02-09T02:41:15.486Z,4.96
2023-02-09T02:46:33.341Z,5.23
2023-02-09T02:51:43.741Z,5.26
2023-02-09T02:56:52.352Z,5.10
2023-02-09T03:02:04.083Z,5.00
2023-02-09T03:07:10.001Z,4.90
2023-02-09T03:12:30.204Z,4.65
2023-02-09T03:17:48.670Z,4.85
2023-02-09T03:22:58.576Z,4.81
2023-02-09T03:28:20.220Z,4.81
2023-02-09T03:33:26.902Z,4.61
2023-02-09T03:38:29.261Z,4.88
2023-02-09T03:43:51.599Z,4.84
2023-02-09T03:48:53.645Z,5.06
2023-02-09T03:53:55.886Z,4.95
2023-02-09T03:58:58.001Z,4.97
2023-02-09T04:04:02.309Z,5.15
2023-02-09T04:09:06.593Z,5.27
2023-02-09T04:14:10.010Z,4.80
2023-02-09T04:19:12.752Z,4.82
2023-02-09T04:24:15.198Z,4.82
2023-02-09T04:29:17.440Z,4.91
2023-02-09T04:34:21.558Z,4.93
2023-02-09T04:39:23.710Z,4.82
2023-02-09T04:44:25.841Z,4.61
2023-02-09T04:49:28.056Z,4.80
2023-02-09T04:54:30.244Z,4.76
2023-02-09T04:59:35.285Z,5.10
2023-02-09T05:04:37.591Z,5.23
2023-02-09T05:09:39.812Z,5.04
2023-02-09T05:14:41.980Z,5.00
2023-02-09T05:19:44.138Z,4.80
2023-02-09T05:24:46.306Z,4.74
2023-02-09T05:29:48.489Z,5.20
2023-02-09T05:34:50.760Z,5.36
2023-02-09T05:39:53.275Z,5.09
2023-02-09T05:44:55.408Z,4.99
2023-02-09T05:49:57.592Z,4.94
2023-02-09T05:54:59.856Z,5.20
2023-02-09T06:00:02.441Z,4.80
2023-02-09T06:05:05.850Z,5.35
2023-02-09T06:10:08.268Z,5.13
2023-02-09T06:15:11.206Z,5.05
2023-02-09T06:20:13.349Z,4.90
2023-02-09T06:25:15.565Z,4.88
2023-02-09T06:30:17.860Z,4.83
2023-02-09T06:35:20.054Z,4.83
2023-02-09T06:40:22.213Z,5.01
2023-02-09T06:45:24.382Z,4.82
2023-02-09T06:50:26.626Z,4.65
2023-02-09T06:55:29.159Z,4.64
2023-02-09T07:00:32.230Z,4.95
2023-02-09T07:05:34.397Z,5.14
2023-02-09T07:10:36.664Z,5.30
2023-02-09T07:15:39.358Z,5.55
2023-02-09T07:20:44.547Z,5.33
2023-02-09T07:25:46.891Z,5.55
2023-02-09T07:30:53.555Z,5.59
2023-02-09T07:35:55.717Z,5.57
2023-02-09T07:41:02.192Z,6.22
2023-02-09T07:46:06.745Z,6.08
2023-02-09T07:51:14.423Z,6.29
2023-02-09T07:56:16.664Z,6.11
2023-02-09T08:01:19.222Z,6.62
2023-02-09T08:06:42.398Z,6.81
2023-02-09T08:11:56.549Z,6.95
2023-02-09T08:17:21.137Z,7.25
2023-02-09T08:22:25.163Z,7.33
2023-02-09T08:27:27.725Z,7.15
2023-02-09T08:32:29.971Z,7.10
2023-02-09T08:37:32.184Z,7.38
2023-02-09T08:42:34.322Z,7.31
2023-02-09T08:47:36.772Z,7.67
2023-02-09T08:52:39.117Z,7.51
2023-02-09T08:57:44.489Z,7.66
2023-02-09T09:02:46.900Z,7.60
2023-02-09T09:07:49.047Z,8.11
2023-02-09T09:12:52.199Z,8.36
2023-02-09T09:17:54.280Z,8.62
2023-02-09T09:22:59.686Z,8.70
2023-02-09T09:28:02.235Z,8.46
2023-02-09T09:33:06.360Z,8.80
2023-02-09T09:38:09.382Z,8.99
2023-02-09T09:43:33.093Z,8.71
2023-02-09T09:48:48.332Z,8.86
2023-02-09T09:53:53.819Z,9.22
2023-02-09T09:58:56.502Z,9.34
2023-02-09T10:04:07.753Z,9.01
2023-02-09T10:09:23.791Z,7.91
2023-02-09T10:14:25.950Z,6.81
2023-02-09T10:19:29.476Z,6.66
2023-02-09T10:24:33.804Z,6.24
2023-02-09T10:29:36.585Z,6.41
2023-02-09T10:34:38.690Z,6.68
2023-02-09T10:39:41.129Z,5.96
2023-02-09T10:44:50.999Z,6.18
2023-02-09T10:50:02.160Z,5.85
2023-02-09T10:55:18.148Z,6.53
2023-02-09T11:00:20.258Z,6.77
2023-02-09T11:05:22.284Z,6.75
2023-02-09T11:10:26.474Z,6.36
2023-02-09T11:15:36.247Z,5.92
2023-02-09T11:20:51.560Z,6.36
2023-02-09T11:26:08.096Z,7.02
2023-02-09T11:31:48.204Z,6.74
2023-02-09T11:37:16.768Z,6.57
2023-02-09T11:42:44.834Z,7.05
2023-02-09T11:48:14.776Z,6.59
2023-02-09T11:53:37.118Z,6.91
2023-02-09T11:58:47.082Z,7.13
2023-02-09T12:04:13.905Z,6.28
2023-02-09T12:09:40.248Z,6.23
2023-02-09T12:15:03.995Z,5.77
2023-02-09T12:20:20.644Z,6.30
2023-02-09T12:25:34.167Z,6.08
2023-02-09T12:30:42.511Z,5.77
2023-02-09T12:35:57.915Z,5.33
2023-02-09T12:41:06.385Z,5.58
2023-02-09T12:46:20.334Z,5.42
2023-02-09T12:51:56.481Z,4.87
2023-02-09T12:57:16.813Z,5.04
2023-02-09T13:02:39.877Z,5.23
2023-02-09T13:08:13.486Z,5.04
2023-02-09T13:13:22.038Z,5.41
2023-02-09T13:18:35.666Z,5.26
2023-02-09T13:24:14.712Z,5.04
2023-02-09T13:29:21.595Z,5.02
2023-02-09T13:34:46.406Z,4.94
2023-02-09T13:39:57.749Z,4.43
2023-02-09T13:45:00.211Z,4.59
2023-02-09T13:50:14.842Z,4.93
2023-02-09T13:55:24.399Z,5.00
2023-02-09T14:00:29.926Z,5.24
2023-02-09T14:05:41.594Z,5.19
2023-02-09T14:10:48.872Z,5.20
2023-02-09T14:16:08.808Z,5.11
2023-02-09T14:21:11.252Z,5.30
2023-02-09T14:26:24.149Z,5.38
2023-02-09T14:31:27.104Z,5.20
2023-02-09T14:36:35.243Z,5.63
2023-02-09T14:41:37.692Z,5.49
2023-02-09T14:46:52.223Z,5.44
2023-02-09T14:52:14.089Z,4.66
2023-02-09T14:57:17.102Z,5.09
2023-02-09T15:02:23.675Z,5.52
2023-02-09T15:07:38.908Z,5.92
2023-02-09T15:12:41.245Z,5.89
2023-02-09T15:17:43.420Z,5.71
2023-02-09T15:22:45.545Z,5.83
2023-02-09T15:27:58.258Z,5.54
2023-02-09T15:33:01.266Z,4.86
2023-02-09T15:38:03.644Z,5.23
2023-02-09T15:43:38.476Z,5.22
2023-02-09T15:48:40.646Z,5.34
2023-02-09T15:53:43.477Z,4.58
2023-02-09T15:58:47.098Z,5.15
2023-02-09T16:03:49.555Z,4.92
2023-02-09T16:08:53.722Z,5.44
2023-02-09T16:13:56.175Z,5.32
2023-02-09T16:18:58.310Z,5.43
2023-02-09T16:24:05.287Z,5.47
2023-02-09T16:29:11.827Z,5.94
2023-02-09T16:34:15.846Z,6.23
2023-02-09T16:39:20.712Z,6.70
2023-02-09T16:44:25.037Z,6.17
2023-02-09T16:49:35.983Z,6.26
2023-02-09T16:54:43.932Z,5.76
2023-02-09T16:59:46.821Z,5.44
2023-02-09T17:04:48.895Z,5.92
2023-02-09T17:09:51.012Z,5.89
2023-02-09T17:14:53.302Z,6.12
2023-02-09T17:19:56.347Z,5.84
2023-02-09T17:24:58.558Z,6.24
2023-02-09T17:30:00.723Z,6.28
2023-02-09T17:35:02.903Z,6.35
2023-02-09T17:40:05.336Z,5.68
2023-02-09T17:45:22.997Z,5.34
2023-02-09T17:50:26.912Z,5.35
2023-02-09T17:55:31.279Z,5.31
2023-02-09T18:00:33.482Z,4.79
2023-02-09T18:05:40.829Z,5.15
2023-02-09T18:10:43.237Z,4.87
2023-02-09T18:15:46.911Z,4.13
2023-02-09T18:20:49.299Z,3.77
2023-02-09T18:25:51.542Z,4.88
2023-02-09T18:30:54.082Z,5.02
2023-02-09T18:35:56.193Z,5.45
2023-02-09T18:40:58.246Z,4.97
2023-02-09T18:46:01.502Z,5.67
2023-02-09T18:51:08.171Z,5.81
2023-02-09T18:56:21.044Z,6.14
2023-02-09T19:01:24.655Z,5.50
2023-02-09T19:06:26.947Z,5.47
2023-02-09T19:11:29.132Z,5.40
2023-02-09T19:16:31.515Z,5.51
2023-02-09T19:21:33.766Z,5.52
2023-02-09T19:26:35.982Z,4.98
2023-02-09T19:31:38.201Z,4.94
2023-02-09T19:36:40.345Z,4.95
2023-02-09T19:41:44.601Z,4.86
2023-02-09T19:46:46.846Z,5.29
2023-02-09T19:51:49.598Z,5.83
2023-02-09T19:56:52.246Z,6.14
2023-02-09T20:01:54.404Z,6.29
2023-02-09T20:06:56.778Z,6.23
2023-02-09T20:11:59.045Z,5.64
2023-02-09T20:17:01.282Z,5.79
2023-02-09T20:22:03.870Z,5.73
2023-02-09T20:27:08.003Z,5.75
2023-02-09T20:32:11.086Z,5.59
2023-02-09T20:37:13.193Z,5.71
2023-02-09T20:42:33.618Z,5.47
2023-02-09T20:47:35.712Z,5.84
2023-02-09T20:52:39.813Z,6.13
2023-02-09T20:57:42.129Z,6.07
2023-02-09T21:02:44.383Z,5.82
2023-02-09T21:07:52.371Z,6.04
2023-02-09T21:12:54.869Z,6.23
2023-02-09T21:17:57.399Z,6.17
2023-02-09T21:22:59.739Z,6.54
2023-02-09T21:28:02.488Z,6.27
2023-02-09T21:33:04.865Z,6.34
2023-02-09T21:38:07.873Z,6.47
2023-02-09T21:43:10.154Z,6.28
2023-02-09T21:48:12.408Z,6.58
2023-02-09T21:53:14.602Z,6.72
2023-02-09T21:58:16.868Z,6.66
2023-02-09T22:03:19.096Z,6.56
2023-02-09T22:08:21.245Z,6.74
2023-02-09T22:13:23.433Z,6.76
2023-02-09T22:18:25.766Z,6.57
2023-02-09T22:23:27.923Z,6.65
2023-02-09T22:28:30.353Z,6.72
2023-02-09T22:33:32.582Z,6.67
2023-02-09T22:38:35.986Z,6.56
2023-02-09T22:43:38.221Z,6.76
2023-02-09T22:48:40.406Z,6.56
2023-02-09T22:53:42.620Z,6.63
2023-02-09T22:58:44.773Z,6.83
2023-02-09T23:03:46.981Z,6.83
2023-02-09T23:08:53.132Z,7.02
2023-02-09T23:14:11.718Z,7.17
2023-02-09T23:19:17.568Z,7.19
2023-02-09T23:24:22.111Z,6.95
2023-02-09T23:29:24.538Z,7.20
2023-02-09T23:34:26.826Z,7.01
2023-02-09T23:39:29.046Z,6.65
2023-02-09T23:44:31.262Z,6.83
2023-02-09T23:49:33.478Z,6.74
2023-02-09T23:54:35.714Z,6.73
2023-02-09T23:59:37.914Z,7.00
